Time;durP1;ratioP1;P1;durP2;ratioP2;P2;SDS_P1;SDS_P2;PMS_P1;PMS_P2;Temp;Humidity;BMP_temperature;BMP_pressure;BME280_temperature;BME280_humidity;BME280_pressure;Samples;Min_cycle;Max_cycle;Signal;HPM_P1;HPM_P2
2022/10/24 00:00:57;;;;;;;2.10;1.90;;;18.90;80.90;19.30;96502.00;;;;5055784;28;20560;-86
2022/10/24 00:03:24;;;;;;;2.03;1.87;;;18.90;81.00;19.30;96502.00;;;;5048344;28;20232;-86
2022/10/24 00:05:52;;;;;;;2.43;2.03;;;18.90;80.90;19.30;96510.00;;;;5055811;28;20248;-86
2022/10/24 00:08:19;;;;;;;2.10;1.90;;;18.90;81.00;19.30;96523.00;;;;5055808;28;20208;-86
2022/10/24 00:10:49;;;;;;;2.53;1.70;;;18.90;81.00;19.30;96531.00;;;;5056019;28;20207;-86
2022/10/24 00:13:18;;;;;;;3.10;2.20;;;18.90;81.00;19.30;96535.00;;;;5055075;28;20225;-86
2022/10/24 00:15:47;;;;;;;2.13;1.80;;;18.90;81.10;19.30;96536.00;;;;5055094;28;20751;-86
2022/10/24 00:18:15;;;;;;;4.43;2.00;;;18.90;81.10;19.30;96526.00;;;;5051174;28;20229;-86
2022/10/24 00:20:43;;;;;;;2.67;1.60;;;18.90;81.10;19.30;96515.00;;;;5054907;28;20726;-86
2022/10/24 00:23:12;;;;;;;2.00;1.70;;;18.90;81.10;19.30;96511.00;;;;5053587;28;20284;-86
2022/10/24 00:25:39;;;;;;;2.13;1.70;;;18.90;81.20;19.30;96521.00;;;;5055136;28;20201;-86
2022/10/24 00:28:06;;;;;;;1.73;1.63;;;18.90;81.20;19.30;96523.00;;;;5035163;28;20280;-86
2022/10/24 00:30:35;;;;;;;2.37;1.60;;;18.90;81.20;19.30;96533.00;;;;5048307;28;20279;-86
2022/10/24 00:33:03;;;;;;;2.60;1.60;;;18.90;81.20;19.30;96534.00;;;;5054938;28;20216;-86
2022/10/24 00:35:30;;;;;;;1.67;1.57;;;19.00;81.30;19.30;96530.00;;;;5046078;28;20203;-86
2022/10/24 00:37:57;;;;;;;2.03;1.47;;;19.00;81.30;19.30;96527.00;;;;5055223;28;20211;-86
2022/10/24 00:40:24;;;;;;;3.23;1.60;;;19.00;81.40;19.40;96542.00;;;;5050823;28;20311;-86
2022/10/24 00:42:52;;;;;;;2.97;1.47;;;19.00;82.20;19.40;96550.00;;;;5054751;28;20292;-86
2022/10/24 00:45:44;;;;;;;2.73;1.30;;;19.00;81.60;19.40;96556.00;;;;5054661;28;20334;-86
2022/10/24 00:48:20;;;;;;;2.40;1.30;;;19.00;82.20;19.40;96563.00;;;;5054919;28;20189;-87
2022/10/24 00:50:50;;;;;;;2.17;1.30;;;19.00;81.90;19.40;96570.00;;;;5054775;28;20304;-86
2022/10/24 00:53:20;;;;;;;2.10;1.37;;;19.00;82.00;19.40;96570.00;;;;5054418;28;20590;-86
2022/10/24 00:55:52;;;;;;;1.73;1.37;;;19.00;82.90;19.40;96582.00;;;;5054185;28;20312;-86
2022/10/24 00:58:23;;;;;;;1.10;1.00;;;19.00;82.40;19.40;96572.00;;;;5054631;28;20232;-86
2022/10/24 01:00:51;;;;;;;1.50;1.27;;;19.00;82.50;19.40;96563.00;;;;5054287;28;20280;-86
2022/10/24 01:03:19;;;;;;;2.77;1.23;;;19.00;82.70;19.40;96550.00;;;;5054283;28;20279;-86
2022/10/24 01:06:10;;;;;;;2.00;1.20;;;19.00;82.80;19.30;96530.00;;;;5054359;28;20221;-86
2022/10/24 01:08:45;;;;;;;1.50;0.90;;;19.00;83.10;19.30;96548.00;;;;5051940;28;20204;-86
2022/10/24 01:11:28;;;;;;;2.40;1.07;;;19.00;83.80;19.30;96534.00;;;;5053872;28;20203;-86
2022/10/24 01:14:12;;;;;;;2.33;1.10;;;19.00;83.20;19.30;96527.00;;;;5053631;28;20227;-85
2022/10/24 01:16:49;;;;;;;1.63;0.97;;;19.00;83.40;19.30;96496.00;;;;5053706;28;20690;-86
2022/10/24 01:19:55;;;;;;;3.10;1.33;;;19.00;83.50;19.20;96509.00;;;;5053746;28;20224;-86
2022/10/24 01:22:28;;;;;;;2.97;1.00;;;18.90;83.90;19.20;96507.00;;;;5050367;28;20207;-86
2022/10/24 01:25:09;;;;;;;3.57;1.33;;;18.90;83.70;19.20;96511.00;;;;5041223;28;20288;-86
2022/10/24 01:28:00;;;;;;;2.13;1.20;;;18.90;84.20;19.20;96503.00;;;;5049435;28;20217;-85
2022/10/24 01:30:34;;;;;;;5.40;1.63;;;18.90;84.60;19.10;96488.00;;;;5053277;28;20284;-85
2022/10/24 01:33:06;;;;;;;2.13;1.17;;;18.90;84.20;19.10;96477.00;;;;5052594;28;20215;-85
2022/10/24 01:35:42;;;;;;;2.37;1.30;;;18.80;84.20;19.00;96475.00;;;;5053160;28;20284;-85
2022/10/24 01:38:19;;;;;;;4.00;1.30;;;18.80;84.60;19.00;96491.00;;;;5053440;28;20224;-85
2022/10/24 01:40:54;;;;;;;2.83;1.17;;;18.80;84.80;19.00;96477.00;;;;5053811;28;20210;-85
2022/10/24 01:43:27;;;;;;;1.63;1.20;;;18.70;85.00;19.00;96472.00;;;;5052923;28;20226;-85
2022/10/24 01:46:03;;;;;;;1.73;0.90;;;18.70;85.10;19.00;96467.00;;;;5047667;28;20227;-85
2022/10/24 01:48:38;;;;;;;1.53;1.00;;;18.70;85.40;19.00;96468.00;;;;5050734;28;20274;-85
2022/10/24 01:51:08;;;;;;;1.93;1.00;;;18.70;85.40;18.90;96462.00;;;;5053151;28;20616;-84
2022/10/24 01:53:36;;;;;;;3.43;1.07;;;18.70;85.40;18.90;96434.00;;;;5053260;28;20619;-85
2022/10/24 01:56:05;;;;;;;1.63;1.13;;;18.70;85.40;18.90;96408.00;;;;5052956;28;20242;-85
2022/10/24 01:58:32;;;;;;;1.63;0.90;;;18.60;85.30;18.80;96413.00;;;;5053738;28;20220;-84
2022/10/24 02:01:09;;;;;;;2.63;1.07;;;18.60;85.40;18.70;96442.00;;;;5049143;28;20208;-84
2022/10/24 02:03:41;;;;;;;1.93;1.27;;;18.60;85.70;18.70;96424.00;;;;5046262;28;20295;-84
2022/10/24 02:06:13;;;;;;;1.67;0.90;;;18.60;85.90;18.70;96415.00;;;;5052611;28;20223;-84
2022/10/24 02:08:46;;;;;;;2.40;0.80;;;18.50;85.90;18.60;96433.00;;;;5052201;28;20275;-84
2022/10/24 02:11:14;;;;;;;3.53;1.07;;;18.50;86.20;18.60;96431.00;;;;5053580;28;20238;-84
2022/10/24 02:13:50;;;;;;;3.93;1.30;;;18.50;86.30;18.60;96431.00;;;;5053043;28;20587;-84
2022/10/24 02:16:21;;;;;;;3.00;1.00;;;18.50;86.60;18.60;96428.00;;;;5053660;28;20664;-85
2022/10/24 02:18:52;;;;;;;3.83;0.90;;;18.50;86.70;18.70;96430.00;;;;5052556;28;20200;-84
2022/10/24 02:21:31;;;;;;;2.97;1.30;;;18.50;86.80;18.70;96418.00;;;;5053064;28;20227;-86
2022/10/24 02:24:09;;;;;;;1.40;1.00;;;18.50;87.00;18.70;96406.00;;;;5055306;28;20236;-85
2022/10/24 02:26:45;;;;;;;2.30;1.00;;;18.50;87.00;18.70;96401.00;;;;5053240;28;20243;-85
2022/10/24 02:29:19;;;;;;;2.63;0.93;;;18.40;86.90;18.70;96397.00;;;;5052252;28;20279;-85
2022/10/24 02:31:55;;;;;;;2.13;1.07;;;18.50;87.80;18.70;96386.00;;;;5052318;28;20189;-85
2022/10/24 02:34:25;;;;;;;1.90;0.90;;;18.50;87.30;18.70;96381.00;;;;5052420;28;20212;-85
2022/10/24 02:36:57;;;;;;;1.43;0.80;;;18.50;87.10;18.70;96371.00;;;;5052516;28;20217;-84
2022/10/24 02:39:28;;;;;;;1.10;0.90;;;18.50;87.20;18.70;96363.00;;;;5052697;28;20203;-84
2022/10/24 02:41:58;;;;;;;1.97;0.97;;;18.50;87.30;18.80;96363.00;;;;5052532;28;20237;-84
2022/10/24 02:44:26;;;;;;;3.30;0.93;;;18.50;87.40;18.80;96353.00;;;;5047672;28;20611;-85
2022/10/24 02:47:00;;;;;;;3.20;1.10;;;18.50;87.40;18.80;96338.00;;;;5048327;28;20228;-84
2022/10/24 02:49:28;;;;;;;1.77;0.90;;;18.50;87.50;18.80;96336.00;;;;5051934;28;20193;-84
2022/10/24 02:51:55;;;;;;;2.00;1.10;;;18.50;87.40;18.80;96325.00;;;;5050577;28;20219;-84
2022/10/24 02:54:22;;;;;;;2.67;1.10;;;18.50;87.50;18.90;96330.00;;;;5052160;28;20235;-84
2022/10/24 02:56:54;;;;;;;3.83;1.10;;;18.50;87.50;18.90;96334.00;;;;5052419;28;20216;-85
2022/10/24 02:59:22;;;;;;;2.63;0.93;;;18.50;88.20;18.90;96345.00;;;;5052051;28;20279;-84
2022/10/24 03:01:49;;;;;;;2.50;0.90;;;18.50;87.50;18.90;96351.00;;;;5038121;28;20207;-84
2022/10/24 03:04:17;;;;;;;2.13;1.00;;;18.50;87.50;18.90;96353.00;;;;5054932;28;20215;-84
2022/10/24 03:06:45;;;;;;;1.80;0.90;;;18.50;87.50;18.90;96354.00;;;;5056445;28;20768;-85
2022/10/24 03:09:12;;;;;;;1.67;0.80;;;18.50;87.50;18.90;96347.00;;;;5057307;28;20303;-85
2022/10/24 03:11:40;;;;;;;1.20;1.07;;;18.50;87.60;18.90;96356.00;;;;5053532;28;20283;-84
2022/10/24 03:14:07;;;;;;;4.53;1.57;;;18.50;87.60;18.90;96361.00;;;;5056107;28;20217;-84
2022/10/24 03:16:34;;;;;;;1.43;1.10;;;18.50;87.50;18.90;96365.00;;;;5053492;28;20217;-85
2022/10/24 03:19:01;;;;;;;1.43;0.90;;;18.50;87.60;18.90;96351.00;;;;5056672;28;20303;-84
2022/10/24 03:21:29;;;;;;;2.97;1.00;;;18.60;87.60;19.00;96353.00;;;;5056445;28;20284;-84
2022/10/24 03:23:57;;;;;;;0.90;0.80;;;18.60;87.70;18.90;96358.00;;;;5045874;28;20297;-84
2022/10/24 03:26:24;;;;;;;2.70;1.10;;;18.60;87.70;18.90;96348.00;;;;5037890;28;20221;-84
2022/10/24 03:28:51;;;;;;;3.10;1.40;;;18.60;87.70;18.90;96353.00;;;;5054856;28;20283;-84
2022/10/24 03:31:18;;;;;;;2.13;1.20;;;18.50;87.60;18.90;96350.00;;;;5055734;28;20284;-84
2022/10/24 03:33:45;;;;;;;1.50;1.23;;;18.60;87.70;18.90;96360.00;;;;5055834;28;20680;-85
2022/10/24 03:36:12;;;;;;;2.43;1.40;;;18.50;87.60;18.90;96364.00;;;;5049877;28;20221;-84
2022/10/24 03:38:40;;;;;;;2.37;1.57;;;18.50;87.60;18.90;96381.00;;;;5054194;28;20207;-84
2022/10/24 03:41:07;;;;;;;2.53;1.20;;;18.50;88.40;18.90;96375.00;;;;5056147;28;20288;-84
2022/10/24 03:43:34;;;;;;;3.23;1.53;;;18.50;87.70;18.90;96367.00;;;;5055254;28;20279;-84
2022/10/24 03:46:02;;;;;;;2.17;1.27;;;18.50;87.70;18.90;96379.00;;;;5055370;28;20654;-84
2022/10/24 03:48:29;;;;;;;4.40;1.20;;;18.60;87.90;18.90;96381.00;;;;5055665;28;20197;-85
2022/10/24 03:50:56;;;;;;;4.10;1.70;;;18.60;87.90;18.90;96385.00;;;;5055958;28;20200;-84
2022/10/24 03:53:23;;;;;;;1.90;1.03;;;18.60;87.90;18.90;96379.00;;;;5055378;28;20655;-84
2022/10/24 03:55:51;;;;;;;1.57;1.00;;;18.60;87.90;19.00;96389.00;;;;5055263;28;20559;-84
2022/10/24 03:58:18;;;;;;;2.83;1.07;;;18.60;88.00;19.00;96389.00;;;;5054667;28;20295;-85
2022/10/24 04:00:46;;;;;;;5.87;1.30;;;18.60;88.00;19.00;96392.00;;;;5053580;28;20215;-85
2022/10/24 04:03:13;;;;;;;1.13;0.70;;;18.60;87.90;19.00;96386.00;;;;5051915;28;20296;-84
2022/10/24 04:05:40;;;;;;;1.03;0.87;;;18.60;87.90;19.00;96386.00;;;;5055120;28;20276;-85
2022/10/24 04:08:07;;;;;;;1.83;1.00;;;18.60;88.00;19.00;96381.00;;;;5054777;28;20288;-85
2022/10/24 04:10:34;;;;;;;3.13;1.10;;;18.60;88.00;19.00;96381.00;;;;5055097;28;20295;-85
2022/10/24 04:13:03;;;;;;;1.27;0.70;;;18.60;87.90;19.00;96384.00;;;;5052306;28;20225;-85
2022/10/24 04:15:32;;;;;;;1.40;0.90;;;18.60;87.90;19.00;96387.00;;;;5054348;28;20201;-85
2022/10/24 04:17:59;;;;;;;1.30;1.10;;;18.60;87.90;19.00;96396.00;;;;5052904;28;20208;-85
2022/10/24 04:20:27;;;;;;;1.20;1.00;;;18.60;87.90;19.00;96393.00;;;;5054690;28;20201;-85
2022/10/24 04:22:54;;;;;;;1.83;1.10;;;18.60;87.90;19.00;96400.00;;;;5049887;28;20275;-84
2022/10/24 04:25:21;;;;;;;2.77;1.10;;;18.60;87.90;19.00;96409.00;;;;5052253;28;20287;-85
2022/10/24 04:27:48;;;;;;;2.83;1.03;;;18.60;87.80;19.00;96412.00;;;;5054734;28;20705;-84
2022/10/24 04:30:18;;;;;;;1.43;1.00;;;18.60;87.80;19.00;96411.00;;;;5053720;28;20207;-85
2022/10/24 04:32:46;;;;;;;1.30;1.00;;;18.60;87.80;19.00;96404.00;;;;5055382;28;20283;-84
2022/10/24 04:35:13;;;;;;;3.67;1.13;;;18.60;87.80;19.00;96397.00;;;;5055043;28;20303;-84
2022/10/24 04:37:40;;;;;;;3.00;1.20;;;18.60;87.80;19.00;96399.00;;;;5054714;28;20228;-84
2022/10/24 04:40:09;;;;;;;2.20;1.10;;;18.60;87.90;19.00;96403.00;;;;5048627;28;20229;-84
2022/10/24 04:42:36;;;;;;;2.67;1.20;;;18.60;87.90;19.00;96403.00;;;;5054346;28;20195;-85
2022/10/24 04:45:04;;;;;;;0.80;0.73;;;18.60;87.90;19.00;96397.00;;;;5054628;28;20727;-85
2022/10/24 04:47:33;;;;;;;1.60;1.03;;;18.60;87.90;19.00;96408.00;;;;5052607;28;20256;-85
2022/10/24 04:50:00;;;;;;;2.93;1.30;;;18.60;87.90;19.00;96419.00;;;;5054477;28;20240;-85
2022/10/24 04:52:27;;;;;;;1.10;0.93;;;18.60;87.90;19.00;96417.00;;;;5052502;28;20231;-85
2022/10/24 04:54:55;;;;;;;1.40;1.30;;;18.60;87.90;19.00;96410.00;;;;5049087;28;20227;-85
2022/10/24 04:57:22;;;;;;;1.70;1.00;;;18.60;87.90;19.00;96404.00;;;;5048583;28;20645;-85
2022/10/24 04:59:49;;;;;;;3.27;1.20;;;18.60;87.90;19.00;96392.00;;;;5047723;28;20280;-85
2022/10/24 05:02:16;;;;;;;5.13;1.43;;;18.60;87.80;19.00;96385.00;;;;5046363;28;20280;-85
2022/10/24 05:04:45;;;;;;;2.27;1.20;;;18.60;87.90;19.00;96400.00;;;;5052656;28;20283;-85
2022/10/24 05:07:12;;;;;;;2.73;1.07;;;18.60;87.80;19.00;96399.00;;;;5054820;28;20228;-85
2022/10/24 05:09:39;;;;;;;2.40;1.43;;;18.60;87.70;19.00;96416.00;;;;5054281;28;20236;-84
2022/10/24 05:12:06;;;;;;;1.63;1.10;;;18.60;87.80;19.00;96424.00;;;;5053206;28;20197;-85
2022/10/24 05:14:33;;;;;;;2.53;1.00;;;18.60;87.80;19.00;96431.00;;;;5053604;28;20307;-85
2022/10/24 05:17:00;;;;;;;3.30;1.10;;;18.60;87.80;19.00;96426.00;;;;5053869;28;20308;-84
2022/10/24 05:19:28;;;;;;;3.03;1.17;;;18.60;87.80;19.00;96415.00;;;;5061096;28;20757;-85
2022/10/24 05:21:56;;;;;;;3.33;1.40;;;18.60;87.70;19.00;96413.00;;;;5060359;28;20197;-84
2022/10/24 05:24:23;;;;;;;3.13;1.13;;;18.60;87.70;19.00;96413.00;;;;5058794;28;20200;-85
2022/10/24 05:26:50;;;;;;;3.33;1.27;;;18.60;87.70;19.00;96418.00;;;;5054428;28;20280;-85
2022/10/24 05:29:17;;;;;;;2.30;1.23;;;18.60;87.50;19.00;96416.00;;;;5050354;28;20243;-85
2022/10/24 05:31:44;;;;;;;3.23;1.27;;;18.60;87.40;19.00;96416.00;;;;5055695;28;20658;-85
2022/10/24 05:34:12;;;;;;;2.17;1.27;;;18.60;87.30;19.00;96418.00;;;;5055677;28;20276;-83
2022/10/24 05:36:39;;;;;;;2.53;1.30;;;18.60;87.20;18.90;96428.00;;;;5057383;28;20216;-84
2022/10/24 05:39:07;;;;;;;1.87;1.07;;;18.60;87.20;18.90;96428.00;;;;5056190;28;20204;-85
2022/10/24 05:41:35;;;;;;;1.83;0.93;;;18.60;87.40;19.00;96434.00;;;;5056717;28;20235;-84
2022/10/24 05:44:02;;;;;;;1.43;1.10;;;18.60;87.40;18.90;96428.00;;;;5057138;28;20272;-84
2022/10/24 05:46:31;;;;;;;1.60;1.17;;;18.60;87.60;19.00;96426.00;;;;5062955;22;21323;-84
2022/10/24 05:48:58;;;;;;;1.83;1.10;;;18.60;87.60;19.00;96437.00;;;;5053845;28;20710;-84
2022/10/24 05:51:26;;;;;;;1.17;1.07;;;18.60;87.60;19.00;96443.00;;;;5053511;28;20228;-84
2022/10/24 05:53:53;;;;;;;1.30;1.23;;;18.60;87.60;18.90;96453.00;;;;5039787;28;20287;-83
2022/10/24 05:56:21;;;;;;;1.93;1.20;;;18.50;87.50;19.00;96455.00;;;;5034515;28;20773;-84
2022/10/24 05:58:49;;;;;;;2.03;1.20;;;18.60;87.50;19.00;96450.00;;;;5034479;28;20200;-83
2022/10/24 06:01:16;;;;;;;1.40;1.10;;;18.60;87.60;19.00;96453.00;;;;5033987;28;20217;-84
2022/10/24 06:03:43;;;;;;;1.93;1.57;;;18.50;87.60;19.00;96457.00;;;;5033386;28;20275;-84
2022/10/24 06:06:11;;;;;;;2.23;1.23;;;18.50;87.60;19.00;96462.00;;;;5032826;28;20292;-83
2022/10/24 06:08:39;;;;;;;2.57;1.60;;;18.50;87.60;19.00;96469.00;;;;5033201;28;20201;-85
2022/10/24 06:11:09;;;;;;;2.03;1.40;;;18.50;87.90;19.00;96483.00;;;;5032678;28;20201;-85
2022/10/24 06:13:39;;;;;;;1.60;1.10;;;18.50;87.60;19.00;96483.00;;;;5032887;28;20310;-84
2022/10/24 06:16:08;;;;;;;1.73;1.40;;;18.50;87.60;19.00;96486.00;;;;5032880;28;20241;-84
2022/10/24 06:18:35;;;;;;;3.27;1.37;;;18.50;87.70;19.00;96486.00;;;;5031954;28;20205;-84
2022/10/24 06:21:06;;;;;;;1.60;1.10;;;18.50;87.70;19.00;96487.00;;;;5032963;28;20251;-84
2022/10/24 06:23:33;;;;;;;2.43;1.40;;;18.50;87.70;19.00;96480.00;;;;5032395;28;20396;-85
2022/10/24 06:26:00;;;;;;;2.27;1.23;;;18.50;87.70;19.00;96477.00;;;;5032450;28;20625;-84
2022/10/24 06:28:28;;;;;;;1.77;1.33;;;18.50;87.70;19.00;96480.00;;;;5033052;28;20228;-85
2022/10/24 06:30:56;;;;;;;1.93;1.30;;;18.50;87.70;19.00;96476.00;;;;5034239;28;20236;-84
2022/10/24 06:33:24;;;;;;;1.30;1.20;;;18.50;87.70;19.00;96474.00;;;;5033175;28;20259;-83
2022/10/24 06:35:52;;;;;;;2.77;1.40;;;18.50;87.70;19.00;96478.00;;;;5033364;28;20221;-84
2022/10/24 06:38:19;;;;;;;2.03;1.37;;;18.50;87.70;19.00;96484.00;;;;5023304;28;20248;-85
2022/10/24 06:40:46;;;;;;;2.53;1.90;;;18.50;87.70;19.00;96471.00;;;;5030008;28;20665;-84
2022/10/24 06:43:15;;;;;;;2.87;1.30;;;18.60;87.80;19.00;96474.00;;;;5031621;28;20232;-84
2022/10/24 06:45:42;;;;;;;2.97;1.50;;;18.60;87.90;19.10;96480.00;;;;5028410;28;20764;-84
2022/10/24 06:48:11;;;;;;;1.87;1.40;;;18.60;88.00;19.10;96489.00;;;;5034129;28;20266;-84
2022/10/24 06:50:39;;;;;;;1.73;1.37;;;18.60;88.00;19.10;96487.00;;;;5032444;28;20231;-85
2022/10/24 06:53:07;;;;;;;2.80;1.57;;;18.60;88.00;19.10;96484.00;;;;5032456;28;20252;-84
2022/10/24 06:55:35;;;;;;;1.60;1.10;;;18.60;88.00;19.10;96472.00;;;;5028984;28;20298;-84
2022/10/24 06:58:02;;;;;;;2.47;1.77;;;18.60;88.10;19.20;96467.00;;;;5032417;28;20201;-85
2022/10/24 07:00:29;;;;;;;3.07;2.13;;;18.70;88.20;19.20;96463.00;;;;5032148;28;20599;-83
2022/10/24 07:02:57;;;;;;;2.37;2.00;;;18.70;88.10;19.20;96461.00;;;;5033212;28;20224;-85
2022/10/24 07:05:26;;;;;;;2.77;2.00;;;18.70;88.20;19.20;96461.00;;;;5031013;28;20240;-84
2022/10/24 07:07:53;;;;;;;2.00;1.30;;;18.70;88.20;19.30;96466.00;;;;5033671;28;20233;-84
2022/10/24 07:10:20;;;;;;;1.40;1.30;;;18.80;88.30;19.30;96468.00;;;;5036766;28;20236;-85
2022/10/24 07:12:47;;;;;;;1.40;1.10;;;18.80;88.20;19.30;96467.00;;;;5032943;28;20251;-83
2022/10/24 07:15:14;;;;;;;2.37;1.30;;;18.80;88.30;19.40;96456.00;;;;5032685;28;20257;-84
2022/10/24 07:17:44;;;;;;;1.63;1.17;;;18.80;88.20;19.40;96460.00;;;;5023150;28;20201;-84
2022/10/24 07:20:13;;;;;;;2.70;0.90;;;18.90;88.20;19.40;96462.00;;;;5015853;28;20205;-85
2022/10/24 07:22:44;;;;;;;2.33;1.23;;;18.90;88.20;19.40;96458.00;;;;5016301;28;20300;-85
2022/10/24 07:25:11;;;;;;;2.73;1.20;;;18.80;88.10;19.40;96463.00;;;;5025041;28;20213;-84
2022/10/24 07:27:39;;;;;;;3.00;1.50;;;18.90;88.10;19.40;96460.00;;;;5032475;28;20198;-85
2022/10/24 07:30:08;;;;;;;2.20;0.90;;;18.90;88.20;19.50;96471.00;;;;5031825;28;20201;-84
2022/10/24 07:32:36;;;;;;;1.17;0.97;;;18.90;88.30;19.50;96483.00;;;;5033088;28;20241;-84
2022/10/24 07:35:04;;;;;;;2.60;1.00;;;19.00;88.40;19.50;96488.00;;;;5021337;28;20482;-85
2022/10/24 07:37:31;;;;;;;1.63;1.00;;;19.00;88.50;19.60;96483.00;;;;5044440;28;20645;-85
2022/10/24 07:40:00;;;;;;;6.80;1.20;;;19.00;88.40;19.60;96470.00;;;;5033577;28;20209;-84
2022/10/24 07:42:27;;;;;;;1.17;1.00;;;19.00;88.50;19.60;96467.00;;;;5032600;28;20205;-84
2022/10/24 07:44:54;;;;;;;1.50;1.37;;;19.00;88.50;19.60;96471.00;;;;5029321;28;20272;-84
2022/10/24 07:47:22;;;;;;;1.57;1.20;;;19.00;88.50;19.70;96485.00;;;;5031074;28;20280;-84
2022/10/24 07:49:49;;;;;;;1.70;1.30;;;19.10;88.50;19.70;96473.00;;;;5034344;28;20252;-84
2022/10/24 07:52:16;;;;;;;2.33;1.90;;;19.10;88.50;19.70;96479.00;;;;5039857;28;20189;-84
2022/10/24 07:54:44;;;;;;;3.00;1.83;;;19.20;88.50;19.70;96479.00;;;;5032156;28;20249;-85
2022/10/24 07:57:12;;;;;;;3.50;1.63;;;19.20;88.50;19.80;96487.00;;;;5030904;28;20228;-85
2022/10/24 07:59:39;;;;;;;1.93;1.40;;;19.20;89.20;19.80;96485.00;;;;5031314;28;20223;-85
2022/10/24 08:02:06;;;;;;;2.17;1.27;;;19.20;88.50;19.80;96488.00;;;;5032794;28;20228;-84
2022/10/24 08:04:33;;;;;;;3.73;1.50;;;19.30;88.50;19.80;96475.00;;;;5041953;28;20260;-84
2022/10/24 08:07:01;;;;;;;1.83;1.30;;;19.30;88.50;19.90;96489.00;;;;5036160;28;20201;-84
2022/10/24 08:09:28;;;;;;;1.23;1.10;;;19.30;88.40;19.90;96495.00;;;;5033710;28;20281;-84
2022/10/24 08:11:55;;;;;;;1.97;1.50;;;19.30;88.40;19.90;96501.00;;;;5036008;28;20340;-84
2022/10/24 08:14:24;;;;;;;1.97;1.07;;;19.30;88.40;19.90;96497.00;;;;5036012;28;20220;-85
2022/10/24 08:16:52;;;;;;;1.43;1.20;;;19.30;88.30;19.90;96501.00;;;;5036324;28;20205;-85
2022/10/24 08:19:19;;;;;;;1.60;1.20;;;19.40;88.30;19.90;96505.00;;;;5035571;28;20205;-85
2022/10/24 08:21:46;;;;;;;1.23;1.07;;;19.40;88.30;19.90;96510.00;;;;5035646;28;20236;-85
2022/10/24 08:24:14;;;;;;;2.10;1.47;;;19.40;88.30;19.90;96506.00;;;;5035136;28;20218;-85
2022/10/24 08:26:41;;;;;;;1.37;1.10;;;19.40;88.30;20.00;96493.00;;;;5034229;28;20205;-85
2022/10/24 08:29:10;;;;;;;1.47;1.20;;;19.40;88.30;20.00;96494.00;;;;5036240;28;20232;-85
2022/10/24 08:31:39;;;;;;;1.57;1.27;;;19.40;88.30;20.00;96493.00;;;;5016236;28;20237;-85
2022/10/24 08:34:06;;;;;;;3.13;1.53;;;19.40;88.30;20.00;96491.00;;;;5018344;28;20840;-85
2022/10/24 08:36:35;;;;;;;2.70;1.43;;;19.50;88.30;20.00;96493.00;;;;5035159;28;20287;-84
2022/10/24 08:39:04;;;;;;;1.53;1.10;;;19.50;88.20;20.00;96503.00;;;;5035727;28;20303;-85
2022/10/24 08:41:36;;;;;;;2.17;1.23;;;19.50;88.20;20.10;96494.00;;;;5034813;28;20284;-86
2022/10/24 08:44:19;;;;;;;2.30;1.37;;;19.50;88.30;20.10;96475.00;;;;5034026;28;20318;-85
2022/10/24 08:46:55;;;;;;;1.90;1.40;;;19.60;88.30;20.10;96478.00;;;;5035394;28;20211;-85
2022/10/24 08:49:38;;;;;;;3.47;1.37;;;19.60;89.00;20.10;96475.00;;;;5034145;28;20206;-86
2022/10/24 08:52:21;;;;;;;3.10;1.23;;;19.60;88.10;20.20;96477.00;;;;5039288;28;20213;-85
2022/10/24 08:54:50;;;;;;;2.83;1.40;;;19.60;88.00;20.20;96477.00;;;;5032791;28;20244;-85
2022/10/24 08:57:25;;;;;;;2.73;1.50;;;19.60;88.00;20.20;96471.00;;;;5021986;28;20236;-85
2022/10/24 08:59:57;;;;;;;2.47;1.50;;;19.70;88.00;20.20;96477.00;;;;5034848;28;20288;-83
2022/10/24 09:02:31;;;;;;;3.70;1.70;;;19.60;88.10;20.30;96480.00;;;;5035110;28;20202;-85
2022/10/24 09:05:04;;;;;;;2.80;1.20;;;19.70;89.00;20.30;96489.00;;;;5031750;28;20197;-83
2022/10/24 09:07:31;;;;;;;2.10;1.20;;;19.80;88.30;20.30;96478.00;;;;5034720;28;20205;-83
2022/10/24 09:10:13;;;;;;;2.17;1.03;;;19.80;88.80;20.30;96493.00;;;;5032210;28;20292;-84
2022/10/24 09:12:40;;;;;;;3.57;1.10;;;19.80;88.00;20.30;96485.00;;;;5021975;28;20263;-84
2022/10/24 09:15:16;;;;;;;3.37;1.27;;;19.80;87.90;20.30;96484.00;;;;5021830;28;20261;-85
2022/10/24 09:17:46;;;;;;;2.93;1.20;;;19.80;87.70;20.40;96477.00;;;;5033446;28;20302;-84
2022/10/24 09:20:25;;;;;;;2.70;1.67;;;19.80;87.80;20.40;96488.00;;;;5034965;28;20221;-85
2022/10/24 09:22:54;;;;;;;2.40;1.30;;;19.80;87.50;20.40;96494.00;;;;5015756;28;20221;-85
2022/10/24 09:25:28;;;;;;;1.53;1.33;;;19.80;87.50;20.30;96491.00;;;;5028067;28;20288;-84
2022/10/24 09:27:57;;;;;;;2.93;1.07;;;19.80;87.30;20.30;96493.00;;;;5034313;28;20203;-84
2022/10/24 09:30:27;;;;;;;2.47;1.40;;;19.80;87.20;20.40;96490.00;;;;5034248;28;20730;-85
2022/10/24 09:33:02;;;;;;;1.47;1.00;;;19.80;87.10;20.30;96499.00;;;;5033308;28;20217;-85
2022/10/24 09:35:34;;;;;;;1.23;0.90;;;19.90;87.20;20.40;96503.00;;;;5027663;28;20240;-85
2022/10/24 09:38:27;;;;;;;1.87;1.40;;;19.90;87.10;20.30;96496.00;;;;5034028;28;20201;-85
2022/10/24 09:40:57;;;;;;;1.87;1.17;;;19.90;86.60;20.30;96497.00;;;;5032022;28;20617;-85
2022/10/24 09:43:33;;;;;;;1.83;1.03;;;19.90;86.70;20.30;96493.00;;;;5033401;28;20259;-84
2022/10/24 09:46:06;;;;;;;2.27;0.90;;;19.90;86.60;20.30;96494.00;;;;5028749;28;20249;-85
2022/10/24 09:48:48;;;;;;;3.43;1.10;;;19.90;86.50;20.30;96503.00;;;;5030395;28;20221;-85
2022/10/24 09:51:25;;;;;;;1.53;1.00;;;19.90;86.40;20.30;96510.00;;;;5032925;28;20285;-84
2022/10/24 09:54:25;;;;;;;3.03;1.50;;;19.80;86.40;20.20;96514.00;;;;5033018;28;20315;-85
2022/10/24 09:57:02;;;;;;;2.40;1.37;;;19.80;86.40;20.30;96516.00;;;;5033609;28;20229;-85
2022/10/24 09:59:40;;;;;;;2.70;1.00;;;19.80;86.60;20.30;96512.00;;;;5034460;28;20656;-85
2022/10/24 10:02:27;;;;;;;2.63;1.50;;;19.80;86.70;20.20;96507.00;;;;5013326;28;20209;-84
2022/10/24 10:05:19;;;;;;;3.07;1.33;;;19.80;86.80;20.20;96510.00;;;;5002837;28;20245;-85
2022/10/24 10:07:49;;;;;;;1.37;1.10;;;19.80;87.00;20.20;96518.00;;;;5012991;28;20264;-85
2022/10/24 10:10:37;;;;;;;1.90;1.10;;;19.80;87.10;20.20;96533.00;;;;5021324;28;20201;-85
2022/10/24 10:13:22;;;;;;;2.03;1.07;;;19.80;87.40;20.20;96536.00;;;;5013664;28;20248;-85
2022/10/24 10:15:56;;;;;;;2.07;0.93;;;19.80;87.20;20.20;96527.00;;;;5003072;28;20303;-84
2022/10/24 10:18:47;;;;;;;1.60;0.90;;;19.80;87.30;20.20;96530.00;;;;5004414;28;20629;-85
2022/10/24 10:21:22;;;;;;;2.13;1.10;;;19.80;87.40;20.20;96540.00;;;;5000163;28;20198;-85
2022/10/24 10:23:54;;;;;;;2.80;0.90;;;19.80;87.50;20.20;96534.00;;;;5008117;28;20217;-85
2022/10/24 10:26:28;;;;;;;3.17;1.17;;;19.80;87.60;20.20;96532.00;;;;5013959;28;20197;-85
2022/10/24 10:29:02;;;;;;;3.03;1.40;;;19.80;87.60;20.20;96527.00;;;;5015558;28;20260;-85
2022/10/24 10:31:40;;;;;;;1.10;1.00;;;19.80;87.60;20.20;96537.00;;;;5020116;28;20198;-86
2022/10/24 10:34:22;;;;;;;1.83;1.20;;;19.80;87.60;20.20;96535.00;;;;5005433;28;20218;-85
2022/10/24 10:37:15;;;;;;;2.97;1.23;;;19.80;87.70;20.20;96532.00;;;;5024242;28;20245;-85
2022/10/24 10:40:21;;;;;;;3.17;1.60;;;19.80;87.80;20.20;96530.00;;;;5033259;28;20210;-85
2022/10/24 10:43:12;;;;;;;2.33;1.90;;;19.80;87.90;20.20;96526.00;;;;5022739;28;20276;-86
2022/10/24 10:45:46;;;;;;;2.20;2.03;;;19.80;87.90;20.20;96528.00;;;;5013076;28;20194;-85
2022/10/24 10:48:38;;;;;;;2.03;1.77;;;19.80;87.90;20.20;96526.00;;;;5037784;22;20248;-84
2022/10/24 10:51:19;;;;;;;2.50;1.57;;;19.70;87.90;20.20;96515.00;;;;5029832;28;20201;-82
2022/10/24 10:53:59;;;;;;;2.60;1.50;;;19.70;87.80;20.20;96506.00;;;;5024183;28;20260;-81
2022/10/24 10:56:39;;;;;;;2.53;1.33;;;19.70;88.00;20.20;96518.00;;;;5025997;28;20671;-81
2022/10/24 10:59:41;;;;;;;2.03;1.13;;;19.80;88.20;20.20;96522.00;;;;5020377;28;20612;-81
2022/10/24 11:02:49;;;;;;;2.50;1.70;;;19.70;88.20;20.20;96522.00;;;;5023316;28;20193;-81
2022/10/24 11:05:44;;;;;;;2.13;1.50;;;19.80;88.50;20.20;96522.00;;;;5020023;28;20649;-81
2022/10/24 11:08:39;;;;;;;2.63;1.17;;;19.80;88.40;20.30;96526.00;;;;5021051;28;20217;-85
2022/10/24 11:11:14;;;;;;;2.77;1.50;;;19.80;88.30;20.20;96535.00;;;;5017726;28;20230;-85
2022/10/24 11:13:48;;;;;;;2.73;1.50;;;19.80;88.10;20.20;96544.00;;;;5028063;28;20589;-84